sensor_id;sensor_type;location;lat;lon;timestamp;temperature;humidity
2523;DHT22;1272;53.332;9.860;2022-07-23T00:01:23;16.30;99.90
2523;DHT22;1272;53.332;9.860;2022-07-23T00:03:49;16.30;99.90
2523;DHT22;1272;53.332;9.860;2022-07-23T00:06:17;16.30;69.50
2523;DHT22;1272;53.332;9.860;2022-07-23T00:08:43;16.20;99.90
2523;DHT22;1272;53.332;9.860;2022-07-23T00:11:09;16.20;99.90
2523;DHT22;1272;53.332;9.860;2022-07-23T00:13:34;16.30;99.90
2523;DHT22;1272;53.332;9.860;2022-07-23T00:16:00;16.30;1.00
2523;DHT22;1272;53.332;9.860;2022-07-23T00:18:26;16.30;99.90
2523;DHT22;1272;53.332;9.860;2022-07-23T00:20:52;16.30;99.90
2523;DHT22;1272;53.332;9.860;2022-07-23T00:23:17;16.30;99.90
2523;DHT22;1272;53.332;9.860;2022-07-23T00:25:43;16.30;99.90
2523;DHT22;1272;53.332;9.860;2022-07-23T00:28:10;16.30;99.90
2523;DHT22;1272;53.332;9.860;2022-07-23T00:30:36;16.30;99.90
2523;DHT22;1272;53.332;9.860;2022-07-23T00:33:05;16.30;99.90
2523;DHT22;1272;53.332;9.860;2022-07-23T00:35:33;16.20;99.90
2523;DHT22;1272;53.332;9.860;2022-07-23T00:38:00;16.20;1.00
2523;DHT22;1272;53.332;9.860;2022-07-23T00:40:27;16.20;1.00
2523;DHT22;1272;53.332;9.860;2022-07-23T00:42:54;16.10;6.40
2523;DHT22;1272;53.332;9.860;2022-07-23T00:45:20;16.10;1.00
2523;DHT22;1272;53.332;9.860;2022-07-23T00:47:46;16.10;1.00
2523;DHT22;1272;53.332;9.860;2022-07-23T00:50:12;16.00;99.90
2523;DHT22;1272;53.332;9.860;2022-07-23T00:52:39;15.90;99.90
2523;DHT22;1272;53.332;9.860;2022-07-23T00:55:06;15.90;1.00
2523;DHT22;1272;53.332;9.860;2022-07-23T00:57:32;16.00;1.00
2523;DHT22;1272;53.332;9.860;2022-07-23T00:59:58;16.00;1.00
2523;DHT22;1272;53.332;9.860;2022-07-23T01:02:25;16.00;1.00
2523;DHT22;1272;53.332;9.860;2022-07-23T01:04:51;16.00;1.00
2523;DHT22;1272;53.332;9.860;2022-07-23T01:07:17;16.00;99.90
2523;DHT22;1272;53.332;9.860;2022-07-23T01:09:44;16.00;1.00
2523;DHT22;1272;53.332;9.860;2022-07-23T01:12:11;16.00;1.00
2523;DHT22;1272;53.332;9.860;2022-07-23T01:14:36;15.90;1.00
2523;DHT22;1272;53.332;9.860;2022-07-23T01:17:02;15.90;99.90
2523;DHT22;1272;53.332;9.860;2022-07-23T01:19:28;15.80;99.90
2523;DHT22;1272;53.332;9.860;2022-07-23T01:21:55;15.80;99.90
2523;DHT22;1272;53.332;9.860;2022-07-23T01:24:22;15.70;1.00
2523;DHT22;1272;53.332;9.860;2022-07-23T01:26:48;15.60;1.00
2523;DHT22;1272;53.332;9.860;2022-07-23T01:29:15;15.50;99.90
2523;DHT22;1272;53.332;9.860;2022-07-23T01:31:41;15.50;99.90
2523;DHT22;1272;53.332;9.860;2022-07-23T01:34:07;15.40;1.00
2523;DHT22;1272;53.332;9.860;2022-07-23T01:36:34;15.30;99.90
2523;DHT22;1272;53.332;9.860;2022-07-23T01:39:00;15.30;1.00
2523;DHT22;1272;53.332;9.860;2022-07-23T01:41:26;15.30;17.00
2523;DHT22;1272;53.332;9.860;2022-07-23T01:43:51;15.30;10.70
2523;DHT22;1272;53.332;9.860;2022-07-23T01:46:17;15.30;1.00
2523;DHT22;1272;53.332;9.860;2022-07-23T01:48:43;15.30;1.00
2523;DHT22;1272;53.332;9.860;2022-07-23T01:51:09;15.30;1.00
2523;DHT22;1272;53.332;9.860;2022-07-23T01:53:34;15.20;1.00
2523;DHT22;1272;53.332;9.860;2022-07-23T01:56:00;15.20;99.90
2523;DHT22;1272;53.332;9.860;2022-07-23T01:58:29;15.20;99.90
2523;DHT22;1272;53.332;9.860;2022-07-23T02:00:55;15.20;1.00
2523;DHT22;1272;53.332;9.860;2022-07-23T02:03:21;15.20;99.90
2523;DHT22;1272;53.332;9.860;2022-07-23T02:05:47;15.10;1.00
2523;DHT22;1272;53.332;9.860;2022-07-23T02:08:13;15.10;1.00
2523;DHT22;1272;53.332;9.860;2022-07-23T02:10:39;15.10;1.00
2523;DHT22;1272;53.332;9.860;2022-07-23T02:13:05;15.00;1.00
2523;DHT22;1272;53.332;9.860;2022-07-23T02:15:30;15.00;99.90
2523;DHT22;1272;53.332;9.860;2022-07-23T02:17:56;14.90;1.00
2523;DHT22;1272;53.332;9.860;2022-07-23T02:20:22;14.90;1.00
2523;DHT22;1272;53.332;9.860;2022-07-23T02:22:48;14.80;1.00
2523;DHT22;1272;53.332;9.860;2022-07-23T02:25:14;14.80;42.60
2523;DHT22;1272;53.332;9.860;2022-07-23T02:27:40;14.80;1.00
2523;DHT22;1272;53.332;9.860;2022-07-23T02:30:06;14.70;1.00
2523;DHT22;1272;53.332;9.860;2022-07-23T02:32:32;14.60;33.90
2523;DHT22;1272;53.332;9.860;2022-07-23T02:34:57;14.60;99.90
2523;DHT22;1272;53.332;9.860;2022-07-23T02:37:23;14.50;99.90
2523;DHT22;1272;53.332;9.860;2022-07-23T02:39:49;14.50;99.90
2523;DHT22;1272;53.332;9.860;2022-07-23T02:42:15;14.40;99.40
2523;DHT22;1272;53.332;9.860;2022-07-23T02:44:40;14.40;99.90
2523;DHT22;1272;53.332;9.860;2022-07-23T02:47:06;14.30;99.90
2523;DHT22;1272;53.332;9.860;2022-07-23T02:49:32;14.20;1.00
2523;DHT22;1272;53.332;9.860;2022-07-23T02:51:58;14.20;99.90
2523;DHT22;1272;53.332;9.860;2022-07-23T02:54:23;14.10;1.00
2523;DHT22;1272;53.332;9.860;2022-07-23T02:56:49;14.20;1.00
2523;DHT22;1272;53.332;9.860;2022-07-23T02:59:17;14.10;99.90
2523;DHT22;1272;53.332;9.860;2022-07-23T03:01:43;14.10;99.90
2523;DHT22;1272;53.332;9.860;2022-07-23T03:04:09;14.10;1.00
2523;DHT22;1272;53.332;9.860;2022-07-23T03:06:35;14.10;1.00
2523;DHT22;1272;53.332;9.860;2022-07-23T03:09:01;14.10;99.90
2523;DHT22;1272;53.332;9.860;2022-07-23T03:11:26;14.00;1.00
2523;DHT22;1272;53.332;9.860;2022-07-23T03:13:52;14.00;1.00
2523;DHT22;1272;53.332;9.860;2022-07-23T03:16:18;14.00;1.00
2523;DHT22;1272;53.332;9.860;2022-07-23T03:18:43;14.00;1.00
2523;DHT22;1272;53.332;9.860;2022-07-23T03:21:09;14.00;1.00
2523;DHT22;1272;53.332;9.860;2022-07-23T03:23:34;14.00;1.00
2523;DHT22;1272;53.332;9.860;2022-07-23T03:26:00;14.00;1.00
2523;DHT22;1272;53.332;9.860;2022-07-23T03:28:26;14.00;1.00
2523;DHT22;1272;53.332;9.860;2022-07-23T03:30:51;14.00;1.00
2523;DHT22;1272;53.332;9.860;2022-07-23T03:33:19;14.00;1.00
2523;DHT22;1272;53.332;9.860;2022-07-23T03:35:46;14.00;1.00
2523;DHT22;1272;53.332;9.860;2022-07-23T03:38:12;14.00;1.00
2523;DHT22;1272;53.332;9.860;2022-07-23T03:40:38;13.90;1.00
2523;DHT22;1272;53.332;9.860;2022-07-23T03:43:04;14.00;1.00
2523;DHT22;1272;53.332;9.860;2022-07-23T03:45:30;14.00;1.00
2523;DHT22;1272;53.332;9.860;2022-07-23T03:47:55;14.00;28.50
2523;DHT22;1272;53.332;9.860;2022-07-23T03:50:21;14.10;40.50
2523;DHT22;1272;53.332;9.860;2022-07-23T03:52:47;14.20;49.60
2523;DHT22;1272;53.332;9.860;2022-07-23T03:55:13;14.30;30.40
2523;DHT22;1272;53.332;9.860;2022-07-23T03:57:38;14.40;5.20
2523;DHT22;1272;53.332;9.860;2022-07-23T04:00:05;14.50;1.00
2523;DHT22;1272;53.332;9.860;2022-07-23T04:02:32;14.50;1.00
2523;DHT22;1272;53.332;9.860;2022-07-23T04:04:58;14.50;1.00
2523;DHT22;1272;53.332;9.860;2022-07-23T04:07:24;14.60;1.00
2523;DHT22;1272;53.332;9.860;2022-07-23T04:09:50;14.60;1.00
2523;DHT22;1272;53.332;9.860;2022-07-23T04:12:16;14.60;1.00
2523;DHT22;1272;53.332;9.860;2022-07-23T04:14:42;14.70;1.00
2523;DHT22;1272;53.332;9.860;2022-07-23T04:17:07;14.70;99.90
2523;DHT22;1272;53.332;9.860;2022-07-23T04:19:33;14.70;1.00
2523;DHT22;1272;53.332;9.860;2022-07-23T04:22:00;14.70;99.90
2523;DHT22;1272;53.332;9.860;2022-07-23T04:24:26;14.70;1.00
2523;DHT22;1272;53.332;9.860;2022-07-23T04:26:52;14.70;1.00
2523;DHT22;1272;53.332;9.860;2022-07-23T04:29:18;14.80;1.00
2523;DHT22;1272;53.332;9.860;2022-07-23T04:31:44;14.80;99.90
2523;DHT22;1272;53.332;9.860;2022-07-23T04:34:09;14.80;99.90
2523;DHT22;1272;53.332;9.860;2022-07-23T04:36:35;14.70;99.90
2523;DHT22;1272;53.332;9.860;2022-07-23T04:39:01;14.80;1.00
2523;DHT22;1272;53.332;9.860;2022-07-23T04:41:26;14.80;1.00
2523;DHT22;1272;53.332;9.860;2022-07-23T04:43:52;14.80;1.00
2523;DHT22;1272;53.332;9.860;2022-07-23T04:46:18;14.80;1.00
2523;DHT22;1272;53.332;9.860;2022-07-23T04:48:43;14.80;1.00
2523;DHT22;1272;53.332;9.860;2022-07-23T04:51:09;14.90;1.00
2523;DHT22;1272;53.332;9.860;2022-07-23T04:53:37;14.90;99.90
2523;DHT22;1272;53.332;9.860;2022-07-23T04:56:03;14.90;99.90
2523;DHT22;1272;53.332;9.860;2022-07-23T04:58:29;15.00;1.00
2523;DHT22;1272;53.332;9.860;2022-07-23T05:00:55;14.90;1.00
2523;DHT22;1272;53.332;9.860;2022-07-23T05:03:23;14.90;1.00
2523;DHT22;1272;53.332;9.860;2022-07-23T05:05:49;15.00;99.90
2523;DHT22;1272;53.332;9.860;2022-07-23T05:08:15;15.00;99.90
2523;DHT22;1272;53.332;9.860;2022-07-23T05:10:41;15.00;99.90
2523;DHT22;1272;53.332;9.860;2022-07-23T05:13:07;15.00;99.90
2523;DHT22;1272;53.332;9.860;2022-07-23T05:15:32;15.00;99.90
2523;DHT22;1272;53.332;9.860;2022-07-23T05:17:58;15.10;99.90
2523;DHT22;1272;53.332;9.860;2022-07-23T05:20:24;15.10;99.90
2523;DHT22;1272;53.332;9.860;2022-07-23T05:22:50;15.30;1.00
2523;DHT22;1272;53.332;9.860;2022-07-23T05:25:15;15.30;1.00
2523;DHT22;1272;53.332;9.860;2022-07-23T05:27:41;15.20;75.90
2523;DHT22;1272;53.332;9.860;2022-07-23T05:30:07;15.30;99.90
2523;DHT22;1272;53.332;9.860;2022-07-23T05:32:33;15.20;1.00
2523;DHT22;1272;53.332;9.860;2022-07-23T05:35:00;15.20;99.90
2523;DHT22;1272;53.332;9.860;2022-07-23T05:37:25;15.10;99.90
2523;DHT22;1272;53.332;9.860;2022-07-23T05:39:51;15.10;1.00
2523;DHT22;1272;53.332;9.860;2022-07-23T05:42:17;15.10;1.00
2523;DHT22;1272;53.332;9.860;2022-07-23T05:44:42;15.10;13.20
2523;DHT22;1272;53.332;9.860;2022-07-23T05:47:08;15.10;1.00
2523;DHT22;1272;53.332;9.860;2022-07-23T05:49:34;15.20;99.90
2523;DHT22;1272;53.332;9.860;2022-07-23T05:52:05;15.10;1.00
2523;DHT22;1272;53.332;9.860;2022-07-23T05:54:33;15.10;99.90
2523;DHT22;1272;53.332;9.860;2022-07-23T05:56:59;15.10;99.90
2523;DHT22;1272;53.332;9.860;2022-07-23T05:59:24;15.10;99.90
2523;DHT22;1272;53.332;9.860;2022-07-23T06:01:50;15.10;99.90
2523;DHT22;1272;53.332;9.860;2022-07-23T06:04:16;15.10;26.00
2523;DHT22;1272;53.332;9.860;2022-07-23T06:06:42;15.10;99.90
2523;DHT22;1272;53.332;9.860;2022-07-23T06:09:07;15.30;99.90
2523;DHT22;1272;53.332;9.860;2022-07-23T06:11:33;15.40;1.00
2523;DHT22;1272;53.332;9.860;2022-07-23T06:13:59;15.50;1.00
2523;DHT22;1272;53.332;9.860;2022-07-23T06:16:24;15.60;99.90
2523;DHT22;1272;53.332;9.860;2022-07-23T06:18:50;15.70;99.90
2523;DHT22;1272;53.332;9.860;2022-07-23T06:21:16;15.70;1.00
2523;DHT22;1272;53.332;9.860;2022-07-23T06:23:41;15.80;40.90
2523;DHT22;1272;53.332;9.860;2022-07-23T06:26:07;15.90;1.00
2523;DHT22;1272;53.332;9.860;2022-07-23T06:28:33;16.10;1.00
2523;DHT22;1272;53.332;9.860;2022-07-23T06:30:58;16.10;99.90
2523;DHT22;1272;53.332;9.860;2022-07-23T06:33:24;16.20;99.90
2523;DHT22;1272;53.332;9.860;2022-07-23T06:35:50;16.30;1.00
2523;DHT22;1272;53.332;9.860;2022-07-23T06:38:15;16.40;99.90
2523;DHT22;1272;53.332;9.860;2022-07-23T06:40:41;16.50;1.00
2523;DHT22;1272;53.332;9.860;2022-07-23T06:43:07;16.50;34.20
2523;DHT22;1272;53.332;9.860;2022-07-23T06:45:32;16.60;1.00
2523;DHT22;1272;53.332;9.860;2022-07-23T06:47:58;16.70;1.00
2523;DHT22;1272;53.332;9.860;2022-07-23T06:50:24;16.80;99.90
2523;DHT22;1272;53.332;9.860;2022-07-23T06:52:50;16.80;99.90
2523;DHT22;1272;53.332;9.860;2022-07-23T06:55:15;16.90;99.90
2523;DHT22;1272;53.332;9.860;2022-07-23T06:57:41;16.80;98.20
2523;DHT22;1272;53.332;9.860;2022-07-23T07:00:07;16.70;99.90
2523;DHT22;1272;53.332;9.860;2022-07-23T07:02:33;16.80;99.90
2523;DHT22;1272;53.332;9.860;2022-07-23T07:04:59;17.00;1.00
2523;DHT22;1272;53.332;9.860;2022-07-23T07:07:25;16.90;1.00
2523;DHT22;1272;53.332;9.860;2022-07-23T07:09:50;16.70;98.80
2523;DHT22;1272;53.332;9.860;2022-07-23T07:12:16;16.60;1.00
2523;DHT22;1272;53.332;9.860;2022-07-23T07:14:42;16.70;99.90
2523;DHT22;1272;53.332;9.860;2022-07-23T07:17:07;16.70;99.90
2523;DHT22;1272;53.332;9.860;2022-07-23T07:19:33;16.70;99.90
2523;DHT22;1272;53.332;9.860;2022-07-23T07:21:59;16.80;99.90
2523;DHT22;1272;53.332;9.860;2022-07-23T07:24:24;17.00;40.60
2523;DHT22;1272;53.332;9.860;2022-07-23T07:26:50;17.00;1.00
2523;DHT22;1272;53.332;9.860;2022-07-23T07:29:16;17.20;1.00
2523;DHT22;1272;53.332;9.860;2022-07-23T07:31:41;17.30;1.00
2523;DHT22;1272;53.332;9.860;2022-07-23T07:34:07;17.50;61.70
2523;DHT22;1272;53.332;9.860;2022-07-23T07:36:33;17.50;1.00
2523;DHT22;1272;53.332;9.860;2022-07-23T07:38:58;17.50;34.20
2523;DHT22;1272;53.332;9.860;2022-07-23T07:41:24;17.40;99.90
2523;DHT22;1272;53.332;9.860;2022-07-23T07:43:51;17.40;99.90
2523;DHT22;1272;53.332;9.860;2022-07-23T07:46:17;17.50;99.90
2523;DHT22;1272;53.332;9.860;2022-07-23T07:48:43;17.50;17.20
2523;DHT22;1272;53.332;9.860;2022-07-23T07:51:08;17.60;67.20
2523;DHT22;1272;53.332;9.860;2022-07-23T07:53:34;17.70;1.00
2523;DHT22;1272;53.332;9.860;2022-07-23T07:56:00;17.70;1.00
2523;DHT22;1272;53.332;9.860;2022-07-23T07:58:25;17.60;1.00
2523;DHT22;1272;53.332;9.860;2022-07-23T08:00:51;17.60;1.00
2523;DHT22;1272;53.332;9.860;2022-07-23T08:03:17;17.50;1.00
2523;DHT22;1272;53.332;9.860;2022-07-23T08:05:43;17.40;1.00
2523;DHT22;1272;53.332;9.860;2022-07-23T08:08:09;17.40;1.00
2523;DHT22;1272;53.332;9.860;2022-07-23T08:10:40;17.40;1.00
2523;DHT22;1272;53.332;9.860;2022-07-23T08:13:05;17.40;1.00
2523;DHT22;1272;53.332;9.860;2022-07-23T08:15:31;17.70;1.00
2523;DHT22;1272;53.332;9.860;2022-07-23T08:17:58;17.90;1.00
2523;DHT22;1272;53.332;9.860;2022-07-23T08:20:24;18.20;99.90
2523;DHT22;1272;53.332;9.860;2022-07-23T08:22:53;18.20;99.90
2523;DHT22;1272;53.332;9.860;2022-07-23T08:25:23;18.10;99.90
2523;DHT22;1272;53.332;9.860;2022-07-23T08:27:50;18.00;99.90
2523;DHT22;1272;53.332;9.860;2022-07-23T08:30:16;18.20;99.90
2523;DHT22;1272;53.332;9.860;2022-07-23T08:32:56;18.20;99.90
2523;DHT22;1272;53.332;9.860;2022-07-23T08:35:24;18.20;99.90
2523;DHT22;1272;53.332;9.860;2022-07-23T08:37:50;18.40;99.90
2523;DHT22;1272;53.332;9.860;2022-07-23T08:40:16;18.30;99.90
2523;DHT22;1272;53.332;9.860;2022-07-23T08:42:42;18.40;57.80
2523;DHT22;1272;53.332;9.860;2022-07-23T08:45:08;18.30;99.90
2523;DHT22;1272;53.332;9.860;2022-07-23T08:47:37;18.30;1.00
2523;DHT22;1272;53.332;9.860;2022-07-23T08:50:03;18.60;1.00
2523;DHT22;1272;53.332;9.860;2022-07-23T08:52:30;18.80;1.00
2523;DHT22;1272;53.332;9.860;2022-07-23T08:54:57;19.00;1.00
2523;DHT22;1272;53.332;9.860;2022-07-23T08:57:23;19.00;1.00
2523;DHT22;1272;53.332;9.860;2022-07-23T08:59:49;19.10;1.00
2523;DHT22;1272;53.332;9.860;2022-07-23T09:02:14;19.20;99.90
2523;DHT22;1272;53.332;9.860;2022-07-23T09:04:40;19.30;99.90
2523;DHT22;1272;53.332;9.860;2022-07-23T09:07:06;19.40;99.90
2523;DHT22;1272;53.332;9.860;2022-07-23T09:09:31;19.10;99.90
2523;DHT22;1272;53.332;9.860;2022-07-23T09:12:05;19.00;99.90
2523;DHT22;1272;53.332;9.860;2022-07-23T09:14:43;19.10;99.90
2523;DHT22;1272;53.332;9.860;2022-07-23T09:17:13;19.50;99.90
2523;DHT22;1272;53.332;9.860;2022-07-23T09:19:41;19.60;99.90
2523;DHT22;1272;53.332;9.860;2022-07-23T09:27:58;19.10;99.90
2523;DHT22;1272;53.332;9.860;2022-07-23T09:30:30;19.00;99.90
2523;DHT22;1272;53.332;9.860;2022-07-23T09:33:10;18.90;99.90
2523;DHT22;1272;53.332;9.860;2022-07-23T09:35:49;18.90;1.00
2523;DHT22;1272;53.332;9.860;2022-07-23T09:38:15;19.00;99.90
2523;DHT22;1272;53.332;9.860;2022-07-23T09:40:41;19.00;99.90
2523;DHT22;1272;53.332;9.860;2022-07-23T09:43:07;19.20;99.90
2523;DHT22;1272;53.332;9.860;2022-07-23T09:45:33;19.40;99.90
2523;DHT22;1272;53.332;9.860;2022-07-23T09:48:16;19.40;99.90
2523;DHT22;1272;53.332;9.860;2022-07-23T09:50:43;19.20;99.90
2523;DHT22;1272;53.332;9.860;2022-07-23T09:53:10;19.10;99.90
2523;DHT22;1272;53.332;9.860;2022-07-23T09:55:49;19.40;99.90
2523;DHT22;1272;53.332;9.860;2022-07-23T09:58:14;19.80;99.90
2523;DHT22;1272;53.332;9.860;2022-07-23T10:00:42;19.90;99.90
2523;DHT22;1272;53.332;9.860;2022-07-23T10:03:08;19.60;99.90
2523;DHT22;1272;53.332;9.860;2022-07-23T10:05:35;19.30;99.90
2523;DHT22;1272;53.332;9.860;2022-07-23T10:08:02;19.10;99.90
2523;DHT22;1272;53.332;9.860;2022-07-23T10:10:28;19.00;99.90
2523;DHT22;1272;53.332;9.860;2022-07-23T10:12:55;19.00;99.90
2523;DHT22;1272;53.332;9.860;2022-07-23T10:15:40;18.90;99.90
2523;DHT22;1272;53.332;9.860;2022-07-23T10:18:07;18.90;99.90
2523;DHT22;1272;53.332;9.860;2022-07-23T10:20:35;18.80;99.90
2523;DHT22;1272;53.332;9.860;2022-07-23T10:34:29;19.10;99.90
2523;DHT22;1272;53.332;9.860;2022-07-23T10:37:01;19.40;99.90
2523;DHT22;1272;53.332;9.860;2022-07-23T10:39:34;19.90;99.90
2523;DHT22;1272;53.332;9.860;2022-07-23T10:42:12;20.10;99.90
2523;DHT22;1272;53.332;9.860;2022-07-23T10:44:40;20.10;99.90
2523;DHT22;1272;53.332;9.860;2022-07-23T10:47:08;20.10;99.90
2523;DHT22;1272;53.332;9.860;2022-07-23T10:49:46;20.20;99.90
2523;DHT22;1272;53.332;9.860;2022-07-23T10:57:18;20.40;99.90
2523;DHT22;1272;53.332;9.860;2022-07-23T11:02:47;20.40;99.90
2523;DHT22;1272;53.332;9.860;2022-07-23T11:05:18;20.40;99.90
2523;DHT22;1272;53.332;9.860;2022-07-23T11:24:06;20.10;85.20
2523;DHT22;1272;53.332;9.860;2022-07-23T11:26:59;19.90;99.90
2523;DHT22;1272;53.332;9.860;2022-07-23T11:32:20;19.70;99.90
2523;DHT22;1272;53.332;9.860;2022-07-23T11:34:48;19.70;99.90
2523;DHT22;1272;53.332;9.860;2022-07-23T11:37:36;19.70;99.90
2523;DHT22;1272;53.332;9.860;2022-07-23T11:40:08;19.70;99.90
2523;DHT22;1272;53.332;9.860;2022-07-23T11:42:36;19.50;99.90
2523;DHT22;1272;53.332;9.860;2022-07-23T11:45:02;19.40;99.90
2523;DHT22;1272;53.332;9.860;2022-07-23T11:47:28;19.50;99.90
2523;DHT22;1272;53.332;9.860;2022-07-23T11:49:56;19.70;99.90
2523;DHT22;1272;53.332;9.860;2022-07-23T11:52:22;19.90;99.90
2523;DHT22;1272;53.332;9.860;2022-07-23T11:57:14;20.10;99.90
2523;DHT22;1272;53.332;9.860;2022-07-23T11:59:40;20.40;99.90
2523;DHT22;1272;53.332;9.860;2022-07-23T12:02:06;20.50;99.90
2523;DHT22;1272;53.332;9.860;2022-07-23T12:04:45;20.50;99.90
2523;DHT22;1272;53.332;9.860;2022-07-23T12:10:00;20.50;84.90
2523;DHT22;1272;53.332;9.860;2022-07-23T12:12:26;20.40;72.60
2523;DHT22;1272;53.332;9.860;2022-07-23T12:14:57;20.50;89.60
2523;DHT22;1272;53.332;9.860;2022-07-23T12:17:33;20.70;99.90
2523;DHT22;1272;53.332;9.860;2022-07-23T12:20:00;20.90;77.40
2523;DHT22;1272;53.332;9.860;2022-07-23T12:22:37;20.90;53.90
2523;DHT22;1272;53.332;9.860;2022-07-23T12:27:31;20.90;43.90
2523;DHT22;1272;53.332;9.860;2022-07-23T12:29:56;20.90;36.20
2523;DHT22;1272;53.332;9.860;2022-07-23T12:32:27;21.00;58.10
2523;DHT22;1272;53.332;9.860;2022-07-23T12:37:30;22.00;11.30
2523;DHT22;1272;53.332;9.860;2022-07-23T12:39:57;22.50;6.90
2523;DHT22;1272;53.332;9.860;2022-07-23T12:42:23;23.00;1.00
2523;DHT22;1272;53.332;9.860;2022-07-23T12:45:10;22.80;1.00
2523;DHT22;1272;53.332;9.860;2022-07-23T12:53:14;21.20;1.00
2523;DHT22;1272;53.332;9.860;2022-07-23T12:55:41;21.10;1.00
2523;DHT22;1272;53.332;9.860;2022-07-23T12:58:09;20.90;1.00
2523;DHT22;1272;53.332;9.860;2022-07-23T13:01:09;21.00;1.00
2523;DHT22;1272;53.332;9.860;2022-07-23T13:03:38;21.10;1.00
2523;DHT22;1272;53.332;9.860;2022-07-23T13:06:08;21.20;1.00
2523;DHT22;1272;53.332;9.860;2022-07-23T13:08:36;21.30;1.00
2523;DHT22;1272;53.332;9.860;2022-07-23T13:11:03;21.30;1.00
2523;DHT22;1272;53.332;9.860;2022-07-23T13:13:31;21.50;1.00
2523;DHT22;1272;53.332;9.860;2022-07-23T13:15:58;21.60;1.00
2523;DHT22;1272;53.332;9.860;2022-07-23T13:18:25;21.70;1.00
2523;DHT22;1272;53.332;9.860;2022-07-23T13:20:51;21.90;1.00
2523;DHT22;1272;53.332;9.860;2022-07-23T13:23:17;22.10;1.00
2523;DHT22;1272;53.332;9.860;2022-07-23T13:25:43;22.30;1.00
2523;DHT22;1272;53.332;9.860;2022-07-23T13:28:09;22.50;1.00
2523;DHT22;1272;53.332;9.860;2022-07-23T13:30:35;22.90;1.00
2523;DHT22;1272;53.332;9.860;2022-07-23T13:33:03;23.10;1.00
2523;DHT22;1272;53.332;9.860;2022-07-23T13:35:29;23.20;1.00
2523;DHT22;1272;53.332;9.860;2022-07-23T13:37:55;23.20;1.00
2523;DHT22;1272;53.332;9.860;2022-07-23T13:40:21;23.00;1.00
2523;DHT22;1272;53.332;9.860;2022-07-23T13:42:47;23.10;1.00
2523;DHT22;1272;53.332;9.860;2022-07-23T13:45:14;23.10;1.00
2523;DHT22;1272;53.332;9.860;2022-07-23T13:47:40;23.20;1.00
2523;DHT22;1272;53.332;9.860;2022-07-23T13:50:06;23.40;1.00
2523;DHT22;1272;53.332;9.860;2022-07-23T13:52:32;23.10;1.00
2523;DHT22;1272;53.332;9.860;2022-07-23T13:55:00;23.10;1.00
2523;DHT22;1272;53.332;9.860;2022-07-23T13:57:26;23.50;1.00
2523;DHT22;1272;53.332;9.860;2022-07-23T13:59:52;23.80;1.00
2523;DHT22;1272;53.332;9.860;2022-07-23T14:02:18;24.10;1.00
2523;DHT22;1272;53.332;9.860;2022-07-23T14:04:44;24.40;1.00
2523;DHT22;1272;53.332;9.860;2022-07-23T14:07:10;24.20;1.00
2523;DHT22;1272;53.332;9.860;2022-07-23T14:09:36;23.80;1.00
2523;DHT22;1272;53.332;9.860;2022-07-23T14:12:03;24.00;1.00
2523;DHT22;1272;53.332;9.860;2022-07-23T14:14:29;23.80;1.00
2523;DHT22;1272;53.332;9.860;2022-07-23T14:16:55;23.90;1.00
2523;DHT22;1272;53.332;9.860;2022-07-23T14:19:21;23.80;1.00
2523;DHT22;1272;53.332;9.860;2022-07-23T14:21:47;23.30;1.00
2523;DHT22;1272;53.332;9.860;2022-07-23T14:24:16;23.10;1.00
2523;DHT22;1272;53.332;9.860;2022-07-23T14:26:42;22.70;1.00
2523;DHT22;1272;53.332;9.860;2022-07-23T14:29:08;22.90;1.00
2523;DHT22;1272;53.332;9.860;2022-07-23T14:31:34;23.30;1.00
2523;DHT22;1272;53.332;9.860;2022-07-23T14:34:01;23.60;1.00
2523;DHT22;1272;53.332;9.860;2022-07-23T14:36:27;23.40;1.00
2523;DHT22;1272;53.332;9.860;2022-07-23T14:38:52;23.40;1.00
2523;DHT22;1272;53.332;9.860;2022-07-23T14:41:18;23.30;1.00
2523;DHT22;1272;53.332;9.860;2022-07-23T14:43:44;23.60;1.00
2523;DHT22;1272;53.332;9.860;2022-07-23T14:46:11;23.80;1.00
2523;DHT22;1272;53.332;9.860;2022-07-23T14:48:37;24.00;1.00
2523;DHT22;1272;53.332;9.860;2022-07-23T14:51:03;24.40;1.00
2523;DHT22;1272;53.332;9.860;2022-07-23T14:53:29;24.50;1.00
2523;DHT22;1272;53.332;9.860;2022-07-23T14:55:55;24.30;1.00
2523;DHT22;1272;53.332;9.860;2022-07-23T14:58:22;23.70;1.00
2523;DHT22;1272;53.332;9.860;2022-07-23T15:00:48;23.10;1.00
2523;DHT22;1272;53.332;9.860;2022-07-23T15:03:14;22.80;1.00
2523;DHT22;1272;53.332;9.860;2022-07-23T15:05:40;23.30;1.00
2523;DHT22;1272;53.332;9.860;2022-07-23T15:08:05;23.70;1.00
2523;DHT22;1272;53.332;9.860;2022-07-23T15:10:31;23.70;1.00
2523;DHT22;1272;53.332;9.860;2022-07-23T15:12:57;23.80;1.00
2523;DHT22;1272;53.332;9.860;2022-07-23T15:15:22;23.70;1.00
2523;DHT22;1272;53.332;9.860;2022-07-23T15:17:48;23.60;1.00
2523;DHT22;1272;53.332;9.860;2022-07-23T15:20:14;23.30;1.00
2523;DHT22;1272;53.332;9.860;2022-07-23T15:22:40;23.20;1.00
2523;DHT22;1272;53.332;9.860;2022-07-23T15:25:06;23.10;1.00
2523;DHT22;1272;53.332;9.860;2022-07-23T15:27:32;23.10;1.00
2523;DHT22;1272;53.332;9.860;2022-07-23T15:29:57;23.40;1.00
2523;DHT22;1272;53.332;9.860;2022-07-23T15:32:23;23.60;1.00
2523;DHT22;1272;53.332;9.860;2022-07-23T15:34:52;24.00;1.00
2523;DHT22;1272;53.332;9.860;2022-07-23T15:37:18;24.40;1.00
2523;DHT22;1272;53.332;9.860;2022-07-23T15:39:43;24.60;1.00
2523;DHT22;1272;53.332;9.860;2022-07-23T15:42:09;24.70;1.00
2523;DHT22;1272;53.332;9.860;2022-07-23T15:44:35;24.70;1.00
2523;DHT22;1272;53.332;9.860;2022-07-23T15:47:01;24.20;1.00
2523;DHT22;1272;53.332;9.860;2022-07-23T15:49:27;23.70;1.00
2523;DHT22;1272;53.332;9.860;2022-07-23T15:51:53;23.70;1.00
2523;DHT22;1272;53.332;9.860;2022-07-23T15:54:20;23.60;1.00
2523;DHT22;1272;53.332;9.860;2022-07-23T15:56:46;23.40;1.00
2523;DHT22;1272;53.332;9.860;2022-07-23T15:59:12;23.40;1.00
2523;DHT22;1272;53.332;9.860;2022-07-23T16:01:38;23.30;1.00
2523;DHT22;1272;53.332;9.860;2022-07-23T16:04:04;23.30;1.00
2523;DHT22;1272;53.332;9.860;2022-07-23T16:06:32;23.70;1.00
2523;DHT22;1272;53.332;9.860;2022-07-23T16:08:58;24.10;1.00
2523;DHT22;1272;53.332;9.860;2022-07-23T16:11:25;24.20;1.00
2523;DHT22;1272;53.332;9.860;2022-07-23T16:13:51;24.60;1.00
2523;DHT22;1272;53.332;9.860;2022-07-23T16:16:17;24.60;1.00
2523;DHT22;1272;53.332;9.860;2022-07-23T16:18:42;24.50;1.00
2523;DHT22;1272;53.332;9.860;2022-07-23T16:21:08;24.10;1.00
2523;DHT22;1272;53.332;9.860;2022-07-23T16:23:34;23.90;1.00
2523;DHT22;1272;53.332;9.860;2022-07-23T16:25:59;23.90;1.00
2523;DHT22;1272;53.332;9.860;2022-07-23T16:28:25;23.80;1.00
2523;DHT22;1272;53.332;9.860;2022-07-23T16:30:51;23.60;1.00
2523;DHT22;1272;53.332;9.860;2022-07-23T16:33:16;23.40;1.00
2523;DHT22;1272;53.332;9.860;2022-07-23T16:35:43;23.40;1.00
2523;DHT22;1272;53.332;9.860;2022-07-23T16:38:09;23.40;1.00
2523;DHT22;1272;53.332;9.860;2022-07-23T16:40:34;23.50;1.00
2523;DHT22;1272;53.332;9.860;2022-07-23T16:43:00;23.40;1.00
2523;DHT22;1272;53.332;9.860;2022-07-23T16:45:26;23.10;1.00
2523;DHT22;1272;53.332;9.860;2022-07-23T16:47:52;23.00;1.00
2523;DHT22;1272;53.332;9.860;2022-07-23T16:50:18;23.20;1.00
2523;DHT22;1272;53.332;9.860;2022-07-23T16:52:44;23.30;1.00
2523;DHT22;1272;53.332;9.860;2022-07-23T16:55:10;23.30;1.00
2523;DHT22;1272;53.332;9.860;2022-07-23T16:57:36;23.20;1.00
2523;DHT22;1272;53.332;9.860;2022-07-23T17:00:05;23.10;1.00
2523;DHT22;1272;53.332;9.860;2022-07-23T17:02:31;23.10;1.00
2523;DHT22;1272;53.332;9.860;2022-07-23T17:04:57;23.10;1.00
2523;DHT22;1272;53.332;9.860;2022-07-23T17:07:23;23.20;1.00